sensor_id;sensor_type;location;lat;lon;timestamp;P1;durP1;ratioP1;P2;durP2;ratioP2
4601;SDS011;2313;48.552;9.370;2023-04-25T00:01:10;8.20;;;2.57;;
4601;SDS011;2313;48.552;9.370;2023-04-25T00:03:38;4.30;;;2.50;;
4601;SDS011;2313;48.552;9.370;2023-04-25T00:06:04;3.87;;;2.13;;
4601;SDS011;2313;48.552;9.370;2023-04-25T00:08:30;7.43;;;2.47;;
4601;SDS011;2313;48.552;9.370;2023-04-25T00:10:58;2.90;;;2.30;;
4601;SDS011;2313;48.552;9.370;2023-04-25T00:13:25;2.90;;;2.40;;
4601;SDS011;2313;48.552;9.370;2023-04-25T00:15:51;3.30;;;2.40;;
4601;SDS011;2313;48.552;9.370;2023-04-25T00:18:18;2.90;;;2.10;;
4601;SDS011;2313;48.552;9.370;2023-04-25T00:20:44;3.90;;;2.43;;
4601;SDS011;2313;48.552;9.370;2023-04-25T00:23:12;2.60;;;2.10;;
4601;SDS011;2313;48.552;9.370;2023-04-25T00:25:43;3.77;;;2.40;;
4601;SDS011;2313;48.552;9.370;2023-04-25T00:28:12;9.87;;;3.00;;
4601;SDS011;2313;48.552;9.370;2023-04-25T00:30:38;3.33;;;2.20;;
4601;SDS011;2313;48.552;9.370;2023-04-25T00:33:04;2.23;;;1.93;;
4601;SDS011;2313;48.552;9.370;2023-04-25T00:35:30;7.43;;;2.77;;
4601;SDS011;2313;48.552;9.370;2023-04-25T00:37:55;3.57;;;2.53;;
4601;SDS011;2313;48.552;9.370;2023-04-25T00:40:21;4.00;;;2.90;;
4601;SDS011;2313;48.552;9.370;2023-04-25T00:42:47;2.60;;;2.07;;
4601;SDS011;2313;48.552;9.370;2023-04-25T00:45:13;2.10;;;1.73;;
4601;SDS011;2313;48.552;9.370;2023-04-25T00:47:42;3.70;;;2.30;;
4601;SDS011;2313;48.552;9.370;2023-04-25T00:50:09;5.17;;;2.37;;
4601;SDS011;2313;48.552;9.370;2023-04-25T00:52:36;3.80;;;2.70;;
4601;SDS011;2313;48.552;9.370;2023-04-25T00:55:05;5.00;;;2.20;;
4601;SDS011;2313;48.552;9.370;2023-04-25T00:57:31;3.23;;;2.27;;
4601;SDS011;2313;48.552;9.370;2023-04-25T00:59:56;4.17;;;2.30;;
4601;SDS011;2313;48.552;9.370;2023-04-25T01:02:24;2.87;;;2.40;;
4601;SDS011;2313;48.552;9.370;2023-04-25T01:04:51;2.70;;;1.80;;
4601;SDS011;2313;48.552;9.370;2023-04-25T01:07:17;3.97;;;2.20;;
4601;SDS011;2313;48.552;9.370;2023-04-25T01:09:43;6.67;;;2.47;;
4601;SDS011;2313;48.552;9.370;2023-04-25T01:12:09;6.10;;;3.00;;
4601;SDS011;2313;48.552;9.370;2023-04-25T01:14:34;3.10;;;2.80;;
4601;SDS011;2313;48.552;9.370;2023-04-25T01:17:00;4.67;;;2.37;;
4601;SDS011;2313;48.552;9.370;2023-04-25T01:19:26;1.80;;;1.70;;
4601;SDS011;2313;48.552;9.370;2023-04-25T01:21:52;6.03;;;2.83;;
4601;SDS011;2313;48.552;9.370;2023-04-25T01:24:18;4.57;;;2.47;;
4601;SDS011;2313;48.552;9.370;2023-04-25T01:26:43;4.40;;;2.27;;
4601;SDS011;2313;48.552;9.370;2023-04-25T01:29:14;3.30;;;2.00;;
4601;SDS011;2313;48.552;9.370;2023-04-25T01:31:44;6.00;;;2.57;;
4601;SDS011;2313;48.552;9.370;2023-04-25T01:34:10;3.57;;;2.40;;
4601;SDS011;2313;48.552;9.370;2023-04-25T01:36:37;3.10;;;2.30;;
4601;SDS011;2313;48.552;9.370;2023-04-25T01:39:02;2.60;;;2.17;;
4601;SDS011;2313;48.552;9.370;2023-04-25T01:41:28;3.67;;;2.10;;
4601;SDS011;2313;48.552;9.370;2023-04-25T01:43:54;6.80;;;2.97;;
4601;SDS011;2313;48.552;9.370;2023-04-25T01:46:20;5.03;;;2.20;;
4601;SDS011;2313;48.552;9.370;2023-04-25T01:48:46;4.10;;;2.17;;
4601;SDS011;2313;48.552;9.370;2023-04-25T01:51:12;3.23;;;2.63;;
4601;SDS011;2313;48.552;9.370;2023-04-25T01:53:38;3.80;;;2.27;;
4601;SDS011;2313;48.552;9.370;2023-04-25T01:56:04;3.20;;;2.30;;
4601;SDS011;2313;48.552;9.370;2023-04-25T01:58:30;2.10;;;1.70;;
4601;SDS011;2313;48.552;9.370;2023-04-25T02:00:56;5.43;;;2.40;;
4601;SDS011;2313;48.552;9.370;2023-04-25T02:03:21;5.67;;;2.60;;
4601;SDS011;2313;48.552;9.370;2023-04-25T02:05:47;12.53;;;2.73;;
4601;SDS011;2313;48.552;9.370;2023-04-25T02:08:13;7.37;;;2.83;;
4601;SDS011;2313;48.552;9.370;2023-04-25T02:10:39;9.33;;;2.50;;
4601;SDS011;2313;48.552;9.370;2023-04-25T02:13:05;2.80;;;2.40;;
4601;SDS011;2313;48.552;9.370;2023-04-25T02:15:31;3.67;;;2.53;;
4601;SDS011;2313;48.552;9.370;2023-04-25T02:17:56;3.90;;;2.50;;
4601;SDS011;2313;48.552;9.370;2023-04-25T02:20:23;7.10;;;2.93;;
4601;SDS011;2313;48.552;9.370;2023-04-25T02:22:49;6.03;;;2.27;;
4601;SDS011;2313;48.552;9.370;2023-04-25T02:25:16;5.83;;;3.00;;
4601;SDS011;2313;48.552;9.370;2023-04-25T02:27:43;4.23;;;2.30;;
4601;SDS011;2313;48.552;9.370;2023-04-25T02:30:08;3.57;;;2.70;;
4601;SDS011;2313;48.552;9.370;2023-04-25T02:32:34;8.60;;;2.87;;
4601;SDS011;2313;48.552;9.370;2023-04-25T02:35:00;2.43;;;2.23;;
4601;SDS011;2313;48.552;9.370;2023-04-25T02:37:29;6.53;;;2.70;;
4601;SDS011;2313;48.552;9.370;2023-04-25T02:39:55;4.73;;;2.87;;
4601;SDS011;2313;48.552;9.370;2023-04-25T02:42:21;8.57;;;2.90;;
4601;SDS011;2313;48.552;9.370;2023-04-25T02:44:47;5.80;;;2.77;;
4601;SDS011;2313;48.552;9.370;2023-04-25T02:47:12;8.10;;;2.67;;
4601;SDS011;2313;48.552;9.370;2023-04-25T02:49:38;4.47;;;2.60;;
4601;SDS011;2313;48.552;9.370;2023-04-25T02:52:03;3.67;;;2.67;;
4601;SDS011;2313;48.552;9.370;2023-04-25T02:54:29;6.43;;;2.63;;
4601;SDS011;2313;48.552;9.370;2023-04-25T02:56:55;3.67;;;2.53;;
4601;SDS011;2313;48.552;9.370;2023-04-25T02:59:21;2.67;;;2.30;;
4601;SDS011;2313;48.552;9.370;2023-04-25T03:01:46;3.03;;;2.73;;
4601;SDS011;2313;48.552;9.370;2023-04-25T03:04:12;5.53;;;2.60;;
4601;SDS011;2313;48.552;9.370;2023-04-25T03:06:37;3.50;;;2.03;;
4601;SDS011;2313;48.552;9.370;2023-04-25T03:09:03;3.63;;;2.50;;
4601;SDS011;2313;48.552;9.370;2023-04-25T03:11:29;5.43;;;2.27;;
4601;SDS011;2313;48.552;9.370;2023-04-25T03:13:54;5.23;;;2.20;;
4601;SDS011;2313;48.552;9.370;2023-04-25T03:16:20;5.40;;;2.90;;
4601;SDS011;2313;48.552;9.370;2023-04-25T03:18:47;3.63;;;2.60;;
4601;SDS011;2313;48.552;9.370;2023-04-25T03:21:12;7.20;;;2.57;;
4601;SDS011;2313;48.552;9.370;2023-04-25T03:23:38;6.07;;;2.50;;
4601;SDS011;2313;48.552;9.370;2023-04-25T03:26:03;4.40;;;2.20;;
4601;SDS011;2313;48.552;9.370;2023-04-25T03:28:29;4.03;;;2.63;;
4601;SDS011;2313;48.552;9.370;2023-04-25T03:30:54;5.87;;;2.30;;
4601;SDS011;2313;48.552;9.370;2023-04-25T03:33:20;4.13;;;2.80;;
4601;SDS011;2313;48.552;9.370;2023-04-25T03:35:46;3.87;;;2.60;;
4601;SDS011;2313;48.552;9.370;2023-04-25T03:38:12;2.83;;;2.20;;
4601;SDS011;2313;48.552;9.370;2023-04-25T03:40:37;4.80;;;2.43;;
4601;SDS011;2313;48.552;9.370;2023-04-25T03:43:03;3.47;;;3.00;;
4601;SDS011;2313;48.552;9.370;2023-04-25T03:45:28;6.23;;;2.43;;
4601;SDS011;2313;48.552;9.370;2023-04-25T03:47:54;4.90;;;2.23;;
4601;SDS011;2313;48.552;9.370;2023-04-25T03:50:20;5.47;;;1.80;;
4601;SDS011;2313;48.552;9.370;2023-04-25T03:52:45;5.43;;;2.03;;
4601;SDS011;2313;48.552;9.370;2023-04-25T03:55:11;3.27;;;2.07;;
4601;SDS011;2313;48.552;9.370;2023-04-25T03:57:37;6.93;;;2.90;;
4601;SDS011;2313;48.552;9.370;2023-04-25T04:00:02;3.73;;;2.03;;
4601;SDS011;2313;48.552;9.370;2023-04-25T04:02:29;3.43;;;2.03;;
4601;SDS011;2313;48.552;9.370;2023-04-25T04:04:54;2.17;;;1.90;;
4601;SDS011;2313;48.552;9.370;2023-04-25T04:07:21;7.23;;;1.73;;
4601;SDS011;2313;48.552;9.370;2023-04-25T04:09:47;1.90;;;1.80;;
4601;SDS011;2313;48.552;9.370;2023-04-25T04:12:12;3.90;;;1.90;;
4601;SDS011;2313;48.552;9.370;2023-04-25T04:14:38;4.30;;;2.00;;
4601;SDS011;2313;48.552;9.370;2023-04-25T04:17:03;2.20;;;2.00;;
4601;SDS011;2313;48.552;9.370;2023-04-25T04:19:30;7.40;;;1.77;;
4601;SDS011;2313;48.552;9.370;2023-04-25T04:21:56;2.90;;;1.70;;
4601;SDS011;2313;48.552;9.370;2023-04-25T04:24:22;5.63;;;2.50;;
4601;SDS011;2313;48.552;9.370;2023-04-25T04:26:47;5.10;;;1.97;;
4601;SDS011;2313;48.552;9.370;2023-04-25T04:29:13;3.63;;;2.13;;
4601;SDS011;2313;48.552;9.370;2023-04-25T04:31:45;2.33;;;2.03;;
4601;SDS011;2313;48.552;9.370;2023-04-25T04:34:14;3.40;;;2.60;;
4601;SDS011;2313;48.552;9.370;2023-04-25T04:36:41;3.00;;;2.37;;
4601;SDS011;2313;48.552;9.370;2023-04-25T04:39:07;6.97;;;2.60;;
4601;SDS011;2313;48.552;9.370;2023-04-25T04:41:34;5.37;;;2.37;;
4601;SDS011;2313;48.552;9.370;2023-04-25T04:43:59;1.80;;;1.70;;
4601;SDS011;2313;48.552;9.370;2023-04-25T04:46:26;3.03;;;2.07;;
4601;SDS011;2313;48.552;9.370;2023-04-25T04:48:52;3.73;;;1.97;;
4601;SDS011;2313;48.552;9.370;2023-04-25T04:51:18;5.67;;;2.80;;
4601;SDS011;2313;48.552;9.370;2023-04-25T04:53:44;2.97;;;2.20;;
4601;SDS011;2313;48.552;9.370;2023-04-25T04:56:09;4.97;;;2.03;;
4601;SDS011;2313;48.552;9.370;2023-04-25T04:58:35;4.37;;;2.50;;
4601;SDS011;2313;48.552;9.370;2023-04-25T05:01:01;4.40;;;2.07;;
4601;SDS011;2313;48.552;9.370;2023-04-25T05:03:27;4.87;;;2.50;;
4601;SDS011;2313;48.552;9.370;2023-04-25T05:05:53;5.80;;;2.40;;
4601;SDS011;2313;48.552;9.370;2023-04-25T05:08:19;9.30;;;2.53;;
4601;SDS011;2313;48.552;9.370;2023-04-25T05:10:44;2.87;;;2.10;;
4601;SDS011;2313;48.552;9.370;2023-04-25T05:13:10;3.90;;;2.20;;
4601;SDS011;2313;48.552;9.370;2023-04-25T05:15:35;3.93;;;2.00;;
4601;SDS011;2313;48.552;9.370;2023-04-25T05:18:01;4.40;;;2.33;;
4601;SDS011;2313;48.552;9.370;2023-04-25T05:20:27;4.20;;;2.27;;
4601;SDS011;2313;48.552;9.370;2023-04-25T05:22:52;7.50;;;2.40;;
4601;SDS011;2313;48.552;9.370;2023-04-25T05:25:18;5.07;;;2.50;;
4601;SDS011;2313;48.552;9.370;2023-04-25T05:27:43;4.17;;;2.63;;
4601;SDS011;2313;48.552;9.370;2023-04-25T05:30:09;8.70;;;3.07;;
4601;SDS011;2313;48.552;9.370;2023-04-25T05:32:35;5.37;;;2.27;;
4601;SDS011;2313;48.552;9.370;2023-04-25T05:35:01;3.83;;;2.00;;
4601;SDS011;2313;48.552;9.370;2023-04-25T05:37:27;2.97;;;2.60;;
4601;SDS011;2313;48.552;9.370;2023-04-25T05:39:55;3.70;;;2.00;;
4601;SDS011;2313;48.552;9.370;2023-04-25T05:42:21;5.73;;;2.50;;
4601;SDS011;2313;48.552;9.370;2023-04-25T05:44:46;7.53;;;2.53;;
4601;SDS011;2313;48.552;9.370;2023-04-25T05:47:12;2.70;;;2.10;;
4601;SDS011;2313;48.552;9.370;2023-04-25T05:49:37;3.40;;;2.77;;
4601;SDS011;2313;48.552;9.370;2023-04-25T05:52:03;7.33;;;2.97;;
4601;SDS011;2313;48.552;9.370;2023-04-25T05:54:29;2.83;;;2.47;;
4601;SDS011;2313;48.552;9.370;2023-04-25T05:56:56;3.67;;;2.47;;
4601;SDS011;2313;48.552;9.370;2023-04-25T05:59:22;8.33;;;2.93;;
4601;SDS011;2313;48.552;9.370;2023-04-25T06:01:48;5.90;;;3.07;;
4601;SDS011;2313;48.552;9.370;2023-04-25T06:04:13;5.00;;;2.73;;
4601;SDS011;2313;48.552;9.370;2023-04-25T06:06:39;2.70;;;2.50;;
4601;SDS011;2313;48.552;9.370;2023-04-25T06:09:04;3.70;;;2.67;;
4601;SDS011;2313;48.552;9.370;2023-04-25T06:11:30;5.93;;;2.80;;
4601;SDS011;2313;48.552;9.370;2023-04-25T06:13:55;7.30;;;2.77;;
4601;SDS011;2313;48.552;9.370;2023-04-25T06:16:21;2.70;;;2.20;;
4601;SDS011;2313;48.552;9.370;2023-04-25T06:18:47;4.13;;;2.60;;
4601;SDS011;2313;48.552;9.370;2023-04-25T06:21:12;4.10;;;2.43;;
4601;SDS011;2313;48.552;9.370;2023-04-25T06:23:38;2.93;;;2.63;;
4601;SDS011;2313;48.552;9.370;2023-04-25T06:26:03;7.60;;;2.47;;
4601;SDS011;2313;48.552;9.370;2023-04-25T06:28:29;4.93;;;2.47;;
4601;SDS011;2313;48.552;9.370;2023-04-25T06:30:55;3.90;;;2.27;;
4601;SDS011;2313;48.552;9.370;2023-04-25T06:33:20;5.27;;;2.03;;
4601;SDS011;2313;48.552;9.370;2023-04-25T06:35:47;4.63;;;2.10;;
4601;SDS011;2313;48.552;9.370;2023-04-25T06:38:12;3.97;;;2.10;;
4601;SDS011;2313;48.552;9.370;2023-04-25T06:40:38;2.50;;;1.63;;
4601;SDS011;2313;48.552;9.370;2023-04-25T06:43:04;6.67;;;1.90;;
4601;SDS011;2313;48.552;9.370;2023-04-25T06:45:29;4.80;;;2.00;;
4601;SDS011;2313;48.552;9.370;2023-04-25T06:47:55;2.40;;;1.63;;
4601;SDS011;2313;48.552;9.370;2023-04-25T06:50:21;3.83;;;1.80;;
4601;SDS011;2313;48.552;9.370;2023-04-25T06:52:46;3.37;;;1.90;;
4601;SDS011;2313;48.552;9.370;2023-04-25T06:55:12;3.00;;;1.70;;
4601;SDS011;2313;48.552;9.370;2023-04-25T06:57:37;3.23;;;2.13;;
4601;SDS011;2313;48.552;9.370;2023-04-25T07:00:03;1.80;;;1.70;;
4601;SDS011;2313;48.552;9.370;2023-04-25T07:02:36;2.33;;;1.47;;
4601;SDS011;2313;48.552;9.370;2023-04-25T07:05:02;3.43;;;2.00;;
4601;SDS011;2313;48.552;9.370;2023-04-25T07:07:29;2.03;;;1.80;;
4601;SDS011;2313;48.552;9.370;2023-04-25T07:09:55;2.77;;;1.80;;
4601;SDS011;2313;48.552;9.370;2023-04-25T07:12:21;7.53;;;1.87;;
4601;SDS011;2313;48.552;9.370;2023-04-25T07:14:46;5.63;;;2.00;;
4601;SDS011;2313;48.552;9.370;2023-04-25T07:17:12;2.37;;;1.83;;
4601;SDS011;2313;48.552;9.370;2023-04-25T07:19:38;3.13;;;1.87;;
4601;SDS011;2313;48.552;9.370;2023-04-25T07:22:04;1.83;;;1.73;;
4601;SDS011;2313;48.552;9.370;2023-04-25T07:24:31;3.10;;;2.20;;
4601;SDS011;2313;48.552;9.370;2023-04-25T07:26:57;5.87;;;2.10;;
4601;SDS011;2313;48.552;9.370;2023-04-25T07:29:23;9.07;;;2.43;;
4601;SDS011;2313;48.552;9.370;2023-04-25T07:31:48;2.33;;;2.13;;
4601;SDS011;2313;48.552;9.370;2023-04-25T07:34:14;3.20;;;2.43;;
4601;SDS011;2313;48.552;9.370;2023-04-25T07:36:40;5.20;;;2.47;;
4601;SDS011;2313;48.552;9.370;2023-04-25T07:39:06;2.80;;;2.53;;
4601;SDS011;2313;48.552;9.370;2023-04-25T07:41:34;5.17;;;2.87;;
4601;SDS011;2313;48.552;9.370;2023-04-25T07:43:59;4.03;;;2.83;;
4601;SDS011;2313;48.552;9.370;2023-04-25T07:46:25;2.80;;;2.60;;
4601;SDS011;2313;48.552;9.370;2023-04-25T07:48:51;2.40;;;2.20;;
4601;SDS011;2313;48.552;9.370;2023-04-25T07:51:16;5.30;;;2.90;;
4601;SDS011;2313;48.552;9.370;2023-04-25T07:53:44;3.30;;;2.67;;
4601;SDS011;2313;48.552;9.370;2023-04-25T07:56:10;3.17;;;2.60;;
4601;SDS011;2313;48.552;9.370;2023-04-25T07:58:36;3.23;;;2.93;;
4601;SDS011;2313;48.552;9.370;2023-04-25T08:01:02;3.10;;;2.50;;
4601;SDS011;2313;48.552;9.370;2023-04-25T08:03:28;5.30;;;2.73;;
4601;SDS011;2313;48.552;9.370;2023-04-25T08:05:53;2.63;;;2.43;;
4601;SDS011;2313;48.552;9.370;2023-04-25T08:08:19;3.30;;;3.00;;
4601;SDS011;2313;48.552;9.370;2023-04-25T08:10:45;7.00;;;3.13;;
4601;SDS011;2313;48.552;9.370;2023-04-25T08:13:10;4.33;;;3.07;;
4601;SDS011;2313;48.552;9.370;2023-04-25T08:15:36;4.63;;;3.30;;
4601;SDS011;2313;48.552;9.370;2023-04-25T08:18:02;6.53;;;4.43;;
4601;SDS011;2313;48.552;9.370;2023-04-25T08:20:27;4.73;;;4.00;;
4601;SDS011;2313;48.552;9.370;2023-04-25T08:22:53;7.80;;;5.20;;
4601;SDS011;2313;48.552;9.370;2023-04-25T08:25:19;6.07;;;3.70;;
4601;SDS011;2313;48.552;9.370;2023-04-25T08:27:44;6.40;;;3.60;;
4601;SDS011;2313;48.552;9.370;2023-04-25T08:30:10;5.13;;;3.03;;
4601;SDS011;2313;48.552;9.370;2023-04-25T08:32:36;4.87;;;3.20;;
4601;SDS011;2313;48.552;9.370;2023-04-25T08:35:03;6.07;;;2.87;;
4601;SDS011;2313;48.552;9.370;2023-04-25T08:37:29;3.60;;;3.17;;
4601;SDS011;2313;48.552;9.370;2023-04-25T08:39:55;4.83;;;3.60;;
4601;SDS011;2313;48.552;9.370;2023-04-25T08:42:21;7.13;;;3.67;;
4601;SDS011;2313;48.552;9.370;2023-04-25T08:44:48;4.80;;;3.80;;
4601;SDS011;2313;48.552;9.370;2023-04-25T08:47:14;8.63;;;6.37;;
4601;SDS011;2313;48.552;9.370;2023-04-25T08:49:42;5.73;;;3.40;;
4601;SDS011;2313;48.552;9.370;2023-04-25T08:52:11;6.70;;;3.83;;
4601;SDS011;2313;48.552;9.370;2023-04-25T08:54:39;3.60;;;3.30;;
4601;SDS011;2313;48.552;9.370;2023-04-25T08:57:09;3.90;;;3.60;;
4601;SDS011;2313;48.552;9.370;2023-04-25T08:59:35;4.90;;;3.40;;
4601;SDS011;2313;48.552;9.370;2023-04-25T09:02:02;4.07;;;2.97;;
4601;SDS011;2313;48.552;9.370;2023-04-25T09:04:30;3.93;;;3.53;;
4601;SDS011;2313;48.552;9.370;2023-04-25T09:06:56;5.00;;;3.13;;
4601;SDS011;2313;48.552;9.370;2023-04-25T09:09:21;5.80;;;3.30;;
4601;SDS011;2313;48.552;9.370;2023-04-25T09:11:48;7.00;;;3.43;;
4601;SDS011;2313;48.552;9.370;2023-04-25T09:19:24;2.97;;;2.67;;
4601;SDS011;2313;48.552;9.370;2023-04-25T09:21:54;2.47;;;2.07;;
4601;SDS011;2313;48.552;9.370;2023-04-25T09:24:54;3.37;;;2.80;;
4601;SDS011;2313;48.552;9.370;2023-04-25T09:27:18;2.63;;;2.17;;
4601;SDS011;2313;48.552;9.370;2023-04-25T09:29:45;2.07;;;1.97;;
4601;SDS011;2313;48.552;9.370;2023-04-25T09:34:41;3.87;;;2.47;;
4601;SDS011;2313;48.552;9.370;2023-04-25T09:37:08;2.83;;;2.23;;
4601;SDS011;2313;48.552;9.370;2023-04-25T09:39:36;3.80;;;2.50;;
4601;SDS011;2313;48.552;9.370;2023-04-25T09:42:02;1.50;;;1.30;;
4601;SDS011;2313;48.552;9.370;2023-04-25T09:44:29;3.93;;;1.77;;
4601;SDS011;2313;48.552;9.370;2023-04-25T09:46:54;1.67;;;1.57;;
4601;SDS011;2313;48.552;9.370;2023-04-25T09:49:20;1.40;;;1.30;;
4601;SDS011;2313;48.552;9.370;2023-04-25T09:51:59;1.63;;;1.43;;
4601;SDS011;2313;48.552;9.370;2023-04-25T09:54:25;2.70;;;2.50;;
4601;SDS011;2313;48.552;9.370;2023-04-25T09:56:51;2.73;;;2.53;;
4601;SDS011;2313;48.552;9.370;2023-04-25T09:59:21;4.67;;;2.50;;
4601;SDS011;2313;48.552;9.370;2023-04-25T10:01:50;3.50;;;3.20;;
4601;SDS011;2313;48.552;9.370;2023-04-25T10:04:21;6.67;;;3.50;;
4601;SDS011;2313;48.552;9.370;2023-04-25T10:06:50;5.67;;;2.80;;
4601;SDS011;2313;48.552;9.370;2023-04-25T10:09:19;4.00;;;3.10;;
4601;SDS011;2313;48.552;9.370;2023-04-25T10:11:46;3.73;;;3.30;;
4601;SDS011;2313;48.552;9.370;2023-04-25T10:14:15;3.10;;;2.90;;
4601;SDS011;2313;48.552;9.370;2023-04-25T10:16:42;3.57;;;2.87;;
4601;SDS011;2313;48.552;9.370;2023-04-25T10:19:08;3.33;;;2.90;;
4601;SDS011;2313;48.552;9.370;2023-04-25T10:21:35;2.80;;;2.60;;
4601;SDS011;2313;48.552;9.370;2023-04-25T10:24:09;2.70;;;2.40;;
4601;SDS011;2313;48.552;9.370;2023-04-25T10:26:35;2.73;;;2.43;;
4601;SDS011;2313;48.552;9.370;2023-04-25T10:29:01;1.80;;;1.43;;
4601;SDS011;2313;48.552;9.370;2023-04-25T10:31:31;1.40;;;1.30;;
4601;SDS011;2313;48.552;9.370;2023-04-25T10:33:56;1.23;;;1.00;;
4601;SDS011;2313;48.552;9.370;2023-04-25T10:36:24;1.47;;;1.00;;
4601;SDS011;2313;48.552;9.370;2023-04-25T10:38:52;1.57;;;1.20;;
4601;SDS011;2313;48.552;9.370;2023-04-25T10:41:19;1.27;;;1.00;;
4601;SDS011;2313;48.552;9.370;2023-04-25T10:43:46;1.20;;;1.10;;
4601;SDS011;2313;48.552;9.370;2023-04-25T10:46:26;0.90;;;0.90;;
4601;SDS011;2313;48.552;9.370;2023-04-25T10:48:58;0.90;;;0.90;;
4601;SDS011;2313;48.552;9.370;2023-04-25T10:51:26;1.20;;;1.10;;
4601;SDS011;2313;48.552;9.370;2023-04-25T10:56:26;1.30;;;1.20;;
4601;SDS011;2313;48.552;9.370;2023-04-25T10:58:51;1.30;;;1.20;;
4601;SDS011;2313;48.552;9.370;2023-04-25T11:01:44;2.33;;;1.00;;
4601;SDS011;2313;48.552;9.370;2023-04-25T11:09:23;1.80;;;1.70;;
4601;SDS011;2313;48.552;9.370;2023-04-25T11:11:53;1.60;;;1.50;;
4601;SDS011;2313;48.552;9.370;2023-04-25T11:14:20;1.80;;;1.70;;
4601;SDS011;2313;48.552;9.370;2023-04-25T11:16:46;4.60;;;1.40;;
4601;SDS011;2313;48.552;9.370;2023-04-25T11:19:12;1.23;;;1.13;;
4601;SDS011;2313;48.552;9.370;2023-04-25T11:21:38;3.97;;;1.23;;
4601;SDS011;2313;48.552;9.370;2023-04-25T11:24:03;1.80;;;0.93;;
4601;SDS011;2313;48.552;9.370;2023-04-25T11:26:29;1.23;;;1.00;;
4601;SDS011;2313;48.552;9.370;2023-04-25T11:28:59;1.33;;;1.10;;
4601;SDS011;2313;48.552;9.370;2023-04-25T11:31:28;0.80;;;0.70;;
4601;SDS011;2313;48.552;9.370;2023-04-25T11:33:57;0.80;;;0.60;;
4601;SDS011;2313;48.552;9.370;2023-04-25T11:36:24;0.70;;;0.60;;
4601;SDS011;2313;48.552;9.370;2023-04-25T11:38:51;1.80;;;0.60;;
4601;SDS011;2313;48.552;9.370;2023-04-25T11:41:18;1.43;;;0.73;;
4601;SDS011;2313;48.552;9.370;2023-04-25T11:43:47;1.03;;;0.83;;
4601;SDS011;2313;48.552;9.370;2023-04-25T11:46:13;0.80;;;0.60;;
4601;SDS011;2313;48.552;9.370;2023-04-25T11:48:39;1.10;;;0.77;;
4601;SDS011;2313;48.552;9.370;2023-04-25T11:51:06;1.80;;;0.60;;
4601;SDS011;2313;48.552;9.370;2023-04-25T11:53:32;0.77;;;0.60;;
4601;SDS011;2313;48.552;9.370;2023-04-25T11:55:58;0.80;;;0.73;;
4601;SDS011;2313;48.552;9.370;2023-04-25T11:58:24;1.87;;;0.80;;
4601;SDS011;2313;48.552;9.370;2023-04-25T12:00:50;1.20;;;0.80;;
4601;SDS011;2313;48.552;9.370;2023-04-25T12:03:17;1.00;;;0.57;;
4601;SDS011;2313;48.552;9.370;2023-04-25T12:05:43;0.80;;;0.67;;
4601;SDS011;2313;48.552;9.370;2023-04-25T12:08:13;2.43;;;1.30;;
4601;SDS011;2313;48.552;9.370;2023-04-25T12:10:40;0.80;;;0.70;;
4601;SDS011;2313;48.552;9.370;2023-04-25T12:13:19;0.80;;;0.80;;
4601;SDS011;2313;48.552;9.370;2023-04-25T12:15:46;0.80;;;0.70;;
4601;SDS011;2313;48.552;9.370;2023-04-25T12:18:12;1.90;;;0.80;;
4601;SDS011;2313;48.552;9.370;2023-04-25T12:20:38;0.70;;;0.60;;
4601;SDS011;2313;48.552;9.370;2023-04-25T12:23:07;0.70;;;0.50;;
4601;SDS011;2313;48.552;9.370;2023-04-25T12:25:42;0.80;;;0.60;;
4601;SDS011;2313;48.552;9.370;2023-04-25T12:28:16;0.83;;;0.83;;
4601;SDS011;2313;48.552;9.370;2023-04-25T12:30:58;14.47;;;9.00;;
4601;SDS011;2313;48.552;9.370;2023-04-25T12:33:29;14.10;;;8.03;;
4601;SDS011;2313;48.552;9.370;2023-04-25T12:36:06;2.93;;;1.67;;
4601;SDS011;2313;48.552;9.370;2023-04-25T12:38:39;0.80;;;0.70;;
4601;SDS011;2313;48.552;9.370;2023-04-25T12:41:07;1.23;;;0.93;;
4601;SDS011;2313;48.552;9.370;2023-04-25T12:43:33;7.83;;;4.63;;
4601;SDS011;2313;48.552;9.370;2023-04-25T12:45:59;3.83;;;3.53;;
4601;SDS011;2313;48.552;9.370;2023-04-25T12:48:25;1.60;;;1.50;;
4601;SDS011;2313;48.552;9.370;2023-04-25T12:50:51;1.43;;;0.87;;
4601;SDS011;2313;48.552;9.370;2023-04-25T12:53:21;1.63;;;1.30;;
4601;SDS011;2313;48.552;9.370;2023-04-25T12:55:49;1.60;;;1.30;;
4601;SDS011;2313;48.552;9.370;2023-04-25T12:58:15;1.30;;;1.10;;
4601;SDS011;2313;48.552;9.370;2023-04-25T13:00:43;0.83;;;0.80;;
4601;SDS011;2313;48.552;9.370;2023-04-25T13:03:08;1.17;;;1.07;;
4601;SDS011;2313;48.552;9.370;2023-04-25T13:05:35;1.63;;;1.00;;
4601;SDS011;2313;48.552;9.370;2023-04-25T13:08:02;2.70;;;1.63;;
4601;SDS011;2313;48.552;9.370;2023-04-25T13:10:27;1.20;;;1.10;;
4601;SDS011;2313;48.552;9.370;2023-04-25T13:12:53;1.20;;;1.10;;
4601;SDS011;2313;48.552;9.370;2023-04-25T13:15:19;1.20;;;1.10;;
4601;SDS011;2313;48.552;9.370;2023-04-25T13:17:45;1.40;;;1.20;;
4601;SDS011;2313;48.552;9.370;2023-04-25T13:20:11;1.20;;;1.10;;
4601;SDS011;2313;48.552;9.370;2023-04-25T13:22:37;2.20;;;1.10;;
4601;SDS011;2313;48.552;9.370;2023-04-25T13:25:04;1.30;;;1.20;;
4601;SDS011;2313;48.552;9.370;2023-04-25T13:27:31;2.90;;;1.20;;
4601;SDS011;2313;48.552;9.370;2023-04-25T13:29:58;1.93;;;1.67;;
4601;SDS011;2313;48.552;9.370;2023-04-25T13:32:25;3.60;;;1.27;;
4601;SDS011;2313;48.552;9.370;2023-04-25T13:34:50;1.00;;;0.90;;
4601;SDS011;2313;48.552;9.370;2023-04-25T13:37:16;1.67;;;1.33;;
4601;SDS011;2313;48.552;9.370;2023-04-25T13:39:42;1.77;;;1.67;;
4601;SDS011;2313;48.552;9.370;2023-04-25T13:42:08;2.07;;;1.33;;
4601;SDS011;2313;48.552;9.370;2023-04-25T13:44:33;1.90;;;1.80;;
4601;SDS011;2313;48.552;9.370;2023-04-25T13:46:59;1.93;;;1.83;;
4601;SDS011;2313;48.552;9.370;2023-04-25T13:49:25;2.50;;;1.80;;
4601;SDS011;2313;48.552;9.370;2023-04-25T13:51:51;2.13;;;2.03;;
4601;SDS011;2313;48.552;9.370;2023-04-25T13:54:17;2.00;;;1.90;;
4601;SDS011;2313;48.552;9.370;2023-04-25T13:56:42;3.10;;;2.13;;
4601;SDS011;2313;48.552;9.370;2023-04-25T13:59:08;2.20;;;2.00;;
4601;SDS011;2313;48.552;9.370;2023-04-25T14:01:34;1.80;;;1.67;;
4601;SDS011;2313;48.552;9.370;2023-04-25T14:04:01;6.30;;;1.83;;
4601;SDS011;2313;48.552;9.370;2023-04-25T14:06:28;2.33;;;1.93;;
4601;SDS011;2313;48.552;9.370;2023-04-25T14:08:54;2.00;;;1.90;;
4601;SDS011;2313;48.552;9.370;2023-04-25T14:11:21;2.27;;;2.07;;
4601;SDS011;2313;48.552;9.370;2023-04-25T14:13:47;2.90;;;2.67;;
4601;SDS011;2313;48.552;9.370;2023-04-25T14:16:14;3.37;;;2.63;;
4601;SDS011;2313;48.552;9.370;2023-04-25T14:18:40;2.40;;;2.20;;
4601;SDS011;2313;48.552;9.370;2023-04-25T14:21:06;7.20;;;3.27;;
4601;SDS011;2313;48.552;9.370;2023-04-25T14:23:32;3.00;;;2.80;;
4601;SDS011;2313;48.552;9.370;2023-04-25T14:25:57;2.70;;;2.50;;
4601;SDS011;2313;48.552;9.370;2023-04-25T14:28:23;3.40;;;3.10;;
4601;SDS011;2313;48.552;9.370;2023-04-25T14:30:48;3.80;;;2.10;;
4601;SDS011;2313;48.552;9.370;2023-04-25T14:33:14;2.10;;;2.00;;
4601;SDS011;2313;48.552;9.370;2023-04-25T14:35:39;4.73;;;3.33;;
4601;SDS011;2313;48.552;9.370;2023-04-25T14:38:05;3.13;;;2.77;;
4601;SDS011;2313;48.552;9.370;2023-04-25T14:40:31;2.83;;;2.63;;
4601;SDS011;2313;48.552;9.370;2023-04-25T14:42:56;3.90;;;3.50;;
4601;SDS011;2313;48.552;9.370;2023-04-25T14:45:22;6.67;;;3.90;;
4601;SDS011;2313;48.552;9.370;2023-04-25T14:47:47;4.93;;;3.80;;
4601;SDS011;2313;48.552;9.370;2023-04-25T14:50:13;4.60;;;3.50;;
4601;SDS011;2313;48.552;9.370;2023-04-25T14:52:39;7.30;;;3.77;;
4601;SDS011;2313;48.552;9.370;2023-04-25T14:55:05;4.17;;;3.60;;
4601;SDS011;2313;48.552;9.370;2023-04-25T14:57:32;4.87;;;3.10;;
4601;SDS011;2313;48.552;9.370;2023-04-25T14:59:58;3.40;;;2.77;;
4601;SDS011;2313;48.552;9.370;2023-04-25T15:02:24;2.77;;;2.57;;
4601;SDS011;2313;48.552;9.370;2023-04-25T15:04:50;3.20;;;2.90;;
4601;SDS011;2313;48.552;9.370;2023-04-25T15:07:16;3.00;;;2.80;;
4601;SDS011;2313;48.552;9.370;2023-04-25T15:09:42;4.57;;;2.97;;
4601;SDS011;2313;48.552;9.370;2023-04-25T15:12:07;3.63;;;3.30;;
4601;SDS011;2313;48.552;9.370;2023-04-25T15:14:33;4.13;;;2.80;;
4601;SDS011;2313;48.552;9.370;2023-04-25T15:16:59;3.40;;;3.10;;
4601;SDS011;2313;48.552;9.370;2023-04-25T15:19:25;3.53;;;3.20;;
4601;SDS011;2313;48.552;9.370;2023-04-25T15:21:51;4.93;;;4.50;;
4601;SDS011;2313;48.552;9.370;2023-04-25T15:24:17;8.43;;;6.37;;
4601;SDS011;2313;48.552;9.370;2023-04-25T15:26:43;5.03;;;3.93;;